sensor_id;sensor_type;location;lat;lon;timestamp;temperature;humidity
43320;DHT22;28914;48.722;9.332;2023-05-29T00:04:50;16.80;55.90
43320;DHT22;28914;48.722;9.332;2023-05-29T00:10:10;16.70;56.20
43320;DHT22;28914;48.722;9.332;2023-05-29T00:15:30;16.60;56.30
43320;DHT22;28914;48.722;9.332;2023-05-29T00:20:49;16.50;56.50
43320;DHT22;28914;48.722;9.332;2023-05-29T00:26:08;16.40;56.80
43320;DHT22;28914;48.722;9.332;2023-05-29T00:31:27;16.40;57.40
43320;DHT22;28914;48.722;9.332;2023-05-29T00:36:46;16.30;57.30
43320;DHT22;28914;48.722;9.332;2023-05-29T00:42:06;16.20;58.70
43320;DHT22;28914;48.722;9.332;2023-05-29T00:47:26;16.10;58.90
43320;DHT22;28914;48.722;9.332;2023-05-29T00:52:45;15.90;58.30
43320;DHT22;28914;48.722;9.332;2023-05-29T00:58:05;15.90;58.20
43320;DHT22;28914;48.722;9.332;2023-05-29T01:03:24;15.80;58.30
43320;DHT22;28914;48.722;9.332;2023-05-29T01:08:43;15.70;58.50
43320;DHT22;28914;48.722;9.332;2023-05-29T01:14:06;15.70;59.40
43320;DHT22;28914;48.722;9.332;2023-05-29T01:20:01;15.60;59.30
43320;DHT22;28914;48.722;9.332;2023-05-29T01:25:34;15.50;60.10
43320;DHT22;28914;48.722;9.332;2023-05-29T01:30:54;15.40;59.50
43320;DHT22;28914;48.722;9.332;2023-05-29T01:36:15;15.30;59.60
43320;DHT22;28914;48.722;9.332;2023-05-29T01:41:35;15.20;59.40
43320;DHT22;28914;48.722;9.332;2023-05-29T01:46:54;15.20;59.60
43320;DHT22;28914;48.722;9.332;2023-05-29T01:52:14;15.10;59.60
43320;DHT22;28914;48.722;9.332;2023-05-29T01:57:33;15.00;59.80
43320;DHT22;28914;48.722;9.332;2023-05-29T02:02:53;15.00;60.00
43320;DHT22;28914;48.722;9.332;2023-05-29T02:08:12;14.90;60.30
43320;DHT22;28914;48.722;9.332;2023-05-29T02:13:31;14.80;60.80
43320;DHT22;28914;48.722;9.332;2023-05-29T02:18:51;14.80;60.90
43320;DHT22;28914;48.722;9.332;2023-05-29T02:24:10;14.70;61.00
43320;DHT22;28914;48.722;9.332;2023-05-29T02:29:29;14.60;62.30
43320;DHT22;28914;48.722;9.332;2023-05-29T02:34:49;14.50;61.80
43320;DHT22;28914;48.722;9.332;2023-05-29T02:40:08;14.50;62.10
43320;DHT22;28914;48.722;9.332;2023-05-29T02:45:29;14.40;62.10
43320;DHT22;28914;48.722;9.332;2023-05-29T02:50:48;14.40;62.30
43320;DHT22;28914;48.722;9.332;2023-05-29T02:56:07;14.30;62.70
43320;DHT22;28914;48.722;9.332;2023-05-29T03:01:29;14.20;62.70
43320;DHT22;28914;48.722;9.332;2023-05-29T03:06:49;14.20;63.00
43320;DHT22;28914;48.722;9.332;2023-05-29T03:12:08;14.10;63.10
43320;DHT22;28914;48.722;9.332;2023-05-29T03:17:27;14.10;63.40
43320;DHT22;28914;48.722;9.332;2023-05-29T03:22:47;14.00;64.00
43320;DHT22;28914;48.722;9.332;2023-05-29T03:28:06;13.90;63.80
43320;DHT22;28914;48.722;9.332;2023-05-29T03:33:25;13.80;63.70
43320;DHT22;28914;48.722;9.332;2023-05-29T03:38:44;13.80;64.00
43320;DHT22;28914;48.722;9.332;2023-05-29T03:44:03;13.80;64.30
43320;DHT22;28914;48.722;9.332;2023-05-29T03:49:23;13.70;64.60
43320;DHT22;28914;48.722;9.332;2023-05-29T03:54:42;13.70;65.10
43320;DHT22;28914;48.722;9.332;2023-05-29T04:00:03;13.70;65.00
43320;DHT22;28914;48.722;9.332;2023-05-29T04:05:23;13.70;65.10
43320;DHT22;28914;48.722;9.332;2023-05-29T04:10:42;13.70;65.10
43320;DHT22;28914;48.722;9.332;2023-05-29T04:16:03;13.80;66.30
43320;DHT22;28914;48.722;9.332;2023-05-29T04:21:22;13.80;67.50
43320;DHT22;28914;48.722;9.332;2023-05-29T04:26:41;13.80;67.30
43320;DHT22;28914;48.722;9.332;2023-05-29T04:32:01;13.90;66.70
43320;DHT22;28914;48.722;9.332;2023-05-29T04:37:22;14.00;67.10
43320;DHT22;28914;48.722;9.332;2023-05-29T04:42:48;14.10;67.00
43320;DHT22;28914;48.722;9.332;2023-05-29T04:48:07;14.30;67.00
43320;DHT22;28914;48.722;9.332;2023-05-29T04:53:27;14.40;67.10
43320;DHT22;28914;48.722;9.332;2023-05-29T04:58:47;14.60;68.30
43320;DHT22;28914;48.722;9.332;2023-05-29T05:04:06;14.70;68.30
43320;DHT22;28914;48.722;9.332;2023-05-29T05:09:25;14.80;67.80
43320;DHT22;28914;48.722;9.332;2023-05-29T05:14:45;15.00;67.90
43320;DHT22;28914;48.722;9.332;2023-05-29T05:20:06;15.20;68.20
43320;DHT22;28914;48.722;9.332;2023-05-29T05:25:27;15.40;68.70
43320;DHT22;28914;48.722;9.332;2023-05-29T05:30:46;15.60;68.30
43320;DHT22;28914;48.722;9.332;2023-05-29T05:36:05;15.90;67.90
43320;DHT22;28914;48.722;9.332;2023-05-29T05:41:25;16.30;67.50
43320;DHT22;28914;48.722;9.332;2023-05-29T05:46:45;16.60;67.30
43320;DHT22;28914;48.722;9.332;2023-05-29T05:52:05;17.00;66.60
43320;DHT22;28914;48.722;9.332;2023-05-29T05:57:25;17.40;66.30
43320;DHT22;28914;48.722;9.332;2023-05-29T06:02:45;17.70;65.80
43320;DHT22;28914;48.722;9.332;2023-05-29T06:08:05;18.20;65.30
43320;DHT22;28914;48.722;9.332;2023-05-29T06:13:24;18.50;64.50
43320;DHT22;28914;48.722;9.332;2023-05-29T06:18:44;19.00;64.20
43320;DHT22;28914;48.722;9.332;2023-05-29T06:24:06;19.50;64.30
43320;DHT22;28914;48.722;9.332;2023-05-29T06:29:26;19.90;62.70
43320;DHT22;28914;48.722;9.332;2023-05-29T06:34:45;20.40;61.80
43320;DHT22;28914;48.722;9.332;2023-05-29T06:40:04;20.90;60.90
43320;DHT22;28914;48.722;9.332;2023-05-29T06:45:24;21.40;59.90
43320;DHT22;28914;48.722;9.332;2023-05-29T06:50:43;21.80;58.90
43320;DHT22;28914;48.722;9.332;2023-05-29T06:56:02;22.30;58.20
43320;DHT22;28914;48.722;9.332;2023-05-29T07:01:21;22.90;57.70
43320;DHT22;28914;48.722;9.332;2023-05-29T07:06:41;23.50;57.20
43320;DHT22;28914;48.722;9.332;2023-05-29T07:12:00;24.20;56.10
43320;DHT22;28914;48.722;9.332;2023-05-29T07:17:20;25.00;55.90
43320;DHT22;28914;48.722;9.332;2023-05-29T07:22:39;25.80;54.40
43320;DHT22;28914;48.722;9.332;2023-05-29T07:27:58;26.50;53.40
43320;DHT22;28914;48.722;9.332;2023-05-29T07:33:17;27.40;52.60
43320;DHT22;28914;48.722;9.332;2023-05-29T07:38:36;28.30;51.60
43320;DHT22;28914;48.722;9.332;2023-05-29T07:43:55;29.30;50.40
43320;DHT22;28914;48.722;9.332;2023-05-29T07:49:15;30.30;48.10
43320;DHT22;28914;48.722;9.332;2023-05-29T07:54:34;31.60;46.80
43320;DHT22;28914;48.722;9.332;2023-05-29T07:59:54;32.90;45.70
43320;DHT22;28914;48.722;9.332;2023-05-29T08:05:13;34.40;42.80
43320;DHT22;28914;48.722;9.332;2023-05-29T08:10:33;35.60;41.80
43320;DHT22;28914;48.722;9.332;2023-05-29T08:15:52;36.80;39.30
43320;DHT22;28914;48.722;9.332;2023-05-29T08:21:11;37.90;37.30
43320;DHT22;28914;48.722;9.332;2023-05-29T08:26:31;39.20;37.20
43320;DHT22;28914;48.722;9.332;2023-05-29T08:31:52;40.20;35.20
43320;DHT22;28914;48.722;9.332;2023-05-29T08:37:11;41.30;33.60
43320;DHT22;28914;48.722;9.332;2023-05-29T08:42:33;42.00;31.80
43320;DHT22;28914;48.722;9.332;2023-05-29T08:47:55;42.70;30.90
43320;DHT22;28914;48.722;9.332;2023-05-29T08:53:16;43.50;30.00
43320;DHT22;28914;48.722;9.332;2023-05-29T08:58:38;44.40;29.20
43320;DHT22;28914;48.722;9.332;2023-05-29T09:03:57;45.00;27.30
43320;DHT22;28914;48.722;9.332;2023-05-29T09:09:17;45.50;28.40
43320;DHT22;28914;48.722;9.332;2023-05-29T09:19:57;46.50;26.60
43320;DHT22;28914;48.722;9.332;2023-05-29T09:25:16;47.00;26.80
43320;DHT22;28914;48.722;9.332;2023-05-29T09:30:46;47.40;26.30
43320;DHT22;28914;48.722;9.332;2023-05-29T09:36:06;47.70;24.10
43320;DHT22;28914;48.722;9.332;2023-05-29T09:41:26;47.70;23.60
43320;DHT22;28914;48.722;9.332;2023-05-29T09:46:48;47.90;24.20
43320;DHT22;28914;48.722;9.332;2023-05-29T09:52:08;48.30;24.30
43320;DHT22;28914;48.722;9.332;2023-05-29T09:57:29;48.60;23.30
43320;DHT22;28914;48.722;9.332;2023-05-29T10:02:48;48.60;22.80
43320;DHT22;28914;48.722;9.332;2023-05-29T10:08:15;48.80;23.00
43320;DHT22;28914;48.722;9.332;2023-05-29T10:13:39;49.20;22.00
43320;DHT22;28914;48.722;9.332;2023-05-29T10:19:00;49.60;22.20
43320;DHT22;28914;48.722;9.332;2023-05-29T10:24:20;50.10;22.80
43320;DHT22;28914;48.722;9.332;2023-05-29T10:36:09;51.00;21.30
43320;DHT22;28914;48.722;9.332;2023-05-29T10:52:05;50.70;20.60
43320;DHT22;28914;48.722;9.332;2023-05-29T10:57:24;50.20;21.00
43320;DHT22;28914;48.722;9.332;2023-05-29T11:02:45;49.60;21.00
43320;DHT22;28914;48.722;9.332;2023-05-29T11:08:06;48.90;20.90
43320;DHT22;28914;48.722;9.332;2023-05-29T11:13:36;48.10;21.10
43320;DHT22;28914;48.722;9.332;2023-05-29T11:18:56;47.10;21.80
43320;DHT22;28914;48.722;9.332;2023-05-29T11:24:25;45.60;21.50
43320;DHT22;28914;48.722;9.332;2023-05-29T11:29:44;43.90;21.90
43320;DHT22;28914;48.722;9.332;2023-05-29T11:35:07;41.90;22.70
43320;DHT22;28914;48.722;9.332;2023-05-29T11:40:27;40.20;23.70
43320;DHT22;28914;48.722;9.332;2023-05-29T11:45:47;38.80;24.30
43320;DHT22;28914;48.722;9.332;2023-05-29T11:51:06;37.80;25.00
43320;DHT22;28914;48.722;9.332;2023-05-29T11:56:27;36.90;25.20
43320;DHT22;28914;48.722;9.332;2023-05-29T12:01:48;36.20;25.70
43320;DHT22;28914;48.722;9.332;2023-05-29T12:07:19;35.60;25.60
43320;DHT22;28914;48.722;9.332;2023-05-29T12:12:39;35.10;26.60
43320;DHT22;28914;48.722;9.332;2023-05-29T12:17:59;34.80;26.80
43320;DHT22;28914;48.722;9.332;2023-05-29T12:23:19;34.30;26.90
43320;DHT22;28914;48.722;9.332;2023-05-29T12:28:47;34.00;27.00
43320;DHT22;28914;48.722;9.332;2023-05-29T12:34:11;33.70;27.20
43320;DHT22;28914;48.722;9.332;2023-05-29T12:39:31;33.40;27.50
43320;DHT22;28914;48.722;9.332;2023-05-29T12:44:50;33.20;28.10
43320;DHT22;28914;48.722;9.332;2023-05-29T12:50:20;33.10;27.90
43320;DHT22;28914;48.722;9.332;2023-05-29T12:55:41;32.80;27.80
43320;DHT22;28914;48.722;9.332;2023-05-29T13:01:01;32.60;27.90
43320;DHT22;28914;48.722;9.332;2023-05-29T13:06:20;32.40;28.00
43320;DHT22;28914;48.722;9.332;2023-05-29T13:11:39;32.20;28.40
43320;DHT22;28914;48.722;9.332;2023-05-29T13:16:58;32.00;28.20
43320;DHT22;28914;48.722;9.332;2023-05-29T13:22:18;31.80;28.10
43320;DHT22;28914;48.722;9.332;2023-05-29T13:27:38;31.60;28.40
43320;DHT22;28914;48.722;9.332;2023-05-29T13:32:58;31.40;29.00
43320;DHT22;28914;48.722;9.332;2023-05-29T13:38:17;31.30;28.70
43320;DHT22;28914;48.722;9.332;2023-05-29T13:43:36;31.10;28.60
43320;DHT22;28914;48.722;9.332;2023-05-29T13:48:55;31.00;28.80
43320;DHT22;28914;48.722;9.332;2023-05-29T13:54:16;30.80;28.30
43320;DHT22;28914;48.722;9.332;2023-05-29T13:59:36;30.60;28.60
43320;DHT22;28914;48.722;9.332;2023-05-29T14:04:55;30.50;28.70
43320;DHT22;28914;48.722;9.332;2023-05-29T14:10:15;30.30;28.90
43320;DHT22;28914;48.722;9.332;2023-05-29T14:15:34;30.30;29.10
43320;DHT22;28914;48.722;9.332;2023-05-29T14:20:54;30.20;29.00
43320;DHT22;28914;48.722;9.332;2023-05-29T14:26:13;30.10;28.90
43320;DHT22;28914;48.722;9.332;2023-05-29T14:31:32;29.90;28.90
43320;DHT22;28914;48.722;9.332;2023-05-29T14:36:51;29.80;29.50
43320;DHT22;28914;48.722;9.332;2023-05-29T14:42:10;29.70;29.10
43320;DHT22;28914;48.722;9.332;2023-05-29T14:47:30;29.60;29.60
43320;DHT22;28914;48.722;9.332;2023-05-29T14:52:49;29.60;29.40
43320;DHT22;28914;48.722;9.332;2023-05-29T14:58:08;29.60;29.50
43320;DHT22;28914;48.722;9.332;2023-05-29T15:03:27;29.60;29.40
43320;DHT22;28914;48.722;9.332;2023-05-29T15:08:48;29.60;29.30
43320;DHT22;28914;48.722;9.332;2023-05-29T15:14:09;29.50;29.30
43320;DHT22;28914;48.722;9.332;2023-05-29T15:19:28;29.40;29.50
43320;DHT22;28914;48.722;9.332;2023-05-29T15:24:47;29.40;29.50
43320;DHT22;28914;48.722;9.332;2023-05-29T15:30:14;29.30;29.90
43320;DHT22;28914;48.722;9.332;2023-05-29T15:35:36;29.30;29.90
43320;DHT22;28914;48.722;9.332;2023-05-29T15:40:56;29.20;29.80
43320;DHT22;28914;48.722;9.332;2023-05-29T15:46:15;29.20;29.90
43320;DHT22;28914;48.722;9.332;2023-05-29T15:51:34;29.10;29.90
43320;DHT22;28914;48.722;9.332;2023-05-29T15:56:59;29.10;30.40
43320;DHT22;28914;48.722;9.332;2023-05-29T16:02:21;29.00;30.30
43320;DHT22;28914;48.722;9.332;2023-05-29T16:07:40;29.00;30.70
43320;DHT22;28914;48.722;9.332;2023-05-29T16:12:59;28.90;30.80
43320;DHT22;28914;48.722;9.332;2023-05-29T16:18:19;28.90;31.00
43320;DHT22;28914;48.722;9.332;2023-05-29T16:23:38;28.80;31.20
43320;DHT22;28914;48.722;9.332;2023-05-29T16:28:59;28.80;31.10
43320;DHT22;28914;48.722;9.332;2023-05-29T16:34:19;28.70;31.00
43320;DHT22;28914;48.722;9.332;2023-05-29T16:39:38;28.70;31.40
43320;DHT22;28914;48.722;9.332;2023-05-29T16:44:58;28.60;31.30
43320;DHT22;28914;48.722;9.332;2023-05-29T16:50:17;28.60;31.60
43320;DHT22;28914;48.722;9.332;2023-05-29T16:55:36;28.50;31.70
43320;DHT22;28914;48.722;9.332;2023-05-29T17:00:55;28.40;31.50
43320;DHT22;28914;48.722;9.332;2023-05-29T17:06:14;28.40;31.60
43320;DHT22;28914;48.722;9.332;2023-05-29T17:11:34;28.30;31.90
43320;DHT22;28914;48.722;9.332;2023-05-29T17:16:53;28.30;32.40
43320;DHT22;28914;48.722;9.332;2023-05-29T17:22:13;28.20;32.40
43320;DHT22;28914;48.722;9.332;2023-05-29T17:27:31;28.10;32.50
43320;DHT22;28914;48.722;9.332;2023-05-29T17:32:51;28.00;32.70
43320;DHT22;28914;48.722;9.332;2023-05-29T17:38:10;27.90;32.90
43320;DHT22;28914;48.722;9.332;2023-05-29T17:43:29;27.80;33.00
43320;DHT22;28914;48.722;9.332;2023-05-29T17:48:48;27.70;33.20
43320;DHT22;28914;48.722;9.332;2023-05-29T17:54:09;27.60;33.30
43320;DHT22;28914;48.722;9.332;2023-05-29T17:59:31;27.50;33.40
43320;DHT22;28914;48.722;9.332;2023-05-29T18:04:50;27.50;33.70
43320;DHT22;28914;48.722;9.332;2023-05-29T18:10:10;27.30;33.80
43320;DHT22;28914;48.722;9.332;2023-05-29T18:15:29;27.30;33.90
43320;DHT22;28914;48.722;9.332;2023-05-29T18:20:49;27.10;34.00
43320;DHT22;28914;48.722;9.332;2023-05-29T18:26:08;27.00;34.30
43320;DHT22;28914;48.722;9.332;2023-05-29T18:31:28;26.90;34.20
43320;DHT22;28914;48.722;9.332;2023-05-29T18:36:47;26.70;34.20
43320;DHT22;28914;48.722;9.332;2023-05-29T18:42:06;26.60;34.50
43320;DHT22;28914;48.722;9.332;2023-05-29T18:47:26;26.40;34.50
43320;DHT22;28914;48.722;9.332;2023-05-29T18:52:45;26.30;34.80
43320;DHT22;28914;48.722;9.332;2023-05-29T18:58:05;26.20;35.00
43320;DHT22;28914;48.722;9.332;2023-05-29T19:03:24;26.00;34.90
43320;DHT22;28914;48.722;9.332;2023-05-29T19:08:44;25.80;35.10
43320;DHT22;28914;48.722;9.332;2023-05-29T19:14:03;25.70;35.30
43320;DHT22;28914;48.722;9.332;2023-05-29T19:19:22;25.50;35.10
43320;DHT22;28914;48.722;9.332;2023-05-29T19:24:42;25.30;35.20
43320;DHT22;28914;48.722;9.332;2023-05-29T19:30:01;25.20;35.50
43320;DHT22;28914;48.722;9.332;2023-05-29T19:35:21;25.00;35.50
43320;DHT22;28914;48.722;9.332;2023-05-29T19:40:40;24.80;36.00
43320;DHT22;28914;48.722;9.332;2023-05-29T19:45:59;24.70;36.00
43320;DHT22;28914;48.722;9.332;2023-05-29T19:51:18;24.60;36.50
43320;DHT22;28914;48.722;9.332;2023-05-29T19:56:37;24.40;36.60
43320;DHT22;28914;48.722;9.332;2023-05-29T20:01:56;24.30;36.90
43320;DHT22;28914;48.722;9.332;2023-05-29T20:07:16;24.20;37.20
43320;DHT22;28914;48.722;9.332;2023-05-29T20:12:35;24.10;38.10
43320;DHT22;28914;48.722;9.332;2023-05-29T20:17:55;24.00;37.50
43320;DHT22;28914;48.722;9.332;2023-05-29T20:23:15;23.90;37.70
43320;DHT22;28914;48.722;9.332;2023-05-29T20:28:34;23.80;38.20
43320;DHT22;28914;48.722;9.332;2023-05-29T20:33:54;23.70;38.20
43320;DHT22;28914;48.722;9.332;2023-05-29T20:39:13;23.70;38.50
43320;DHT22;28914;48.722;9.332;2023-05-29T20:44:34;23.60;38.50
43320;DHT22;28914;48.722;9.332;2023-05-29T20:49:53;23.60;39.00
43320;DHT22;28914;48.722;9.332;2023-05-29T20:55:14;23.50;38.80
43320;DHT22;28914;48.722;9.332;2023-05-29T21:00:33;23.40;38.90
43320;DHT22;28914;48.722;9.332;2023-05-29T21:05:52;23.40;39.30
43320;DHT22;28914;48.722;9.332;2023-05-29T21:11:11;23.30;39.60
43320;DHT22;28914;48.722;9.332;2023-05-29T21:16:31;23.30;39.60
43320;DHT22;28914;48.722;9.332;2023-05-29T21:21:50;23.20;40.10
43320;DHT22;28914;48.722;9.332;2023-05-29T21:27:10;23.20;40.10
43320;DHT22;28914;48.722;9.332;2023-05-29T21:32:29;23.10;40.60
43320;DHT22;28914;48.722;9.332;2023-05-29T21:37:48;23.10;40.10
43320;DHT22;28914;48.722;9.332;2023-05-29T21:43:08;23.00;40.60
43320;DHT22;28914;48.722;9.332;2023-05-29T21:48:27;22.90;40.50
43320;DHT22;28914;48.722;9.332;2023-05-29T21:53:46;22.80;40.90
43320;DHT22;28914;48.722;9.332;2023-05-29T21:59:05;22.70;40.90
43320;DHT22;28914;48.722;9.332;2023-05-29T22:04:25;22.50;41.50
43320;DHT22;28914;48.722;9.332;2023-05-29T22:09:44;22.40;41.80
43320;DHT22;28914;48.722;9.332;2023-05-29T22:15:05;22.10;42.20
43320;DHT22;28914;48.722;9.332;2023-05-29T22:20:24;21.90;42.40
43320;DHT22;28914;48.722;9.332;2023-05-29T22:25:46;21.70;42.70
43320;DHT22;28914;48.722;9.332;2023-05-29T22:31:06;21.50;42.90
43320;DHT22;28914;48.722;9.332;2023-05-29T22:36:26;21.30;43.30
43320;DHT22;28914;48.722;9.332;2023-05-29T22:41:46;21.20;43.80
43320;DHT22;28914;48.722;9.332;2023-05-29T22:47:05;21.00;44.20
43320;DHT22;28914;48.722;9.332;2023-05-29T22:52:24;20.90;44.40
43320;DHT22;28914;48.722;9.332;2023-05-29T22:57:44;20.80;45.40
43320;DHT22;28914;48.722;9.332;2023-05-29T23:03:03;20.70;45.10
43320;DHT22;28914;48.722;9.332;2023-05-29T23:08:23;20.60;46.10
43320;DHT22;28914;48.722;9.332;2023-05-29T23:13:42;20.50;45.80
43320;DHT22;28914;48.722;9.332;2023-05-29T23:19:02;20.40;46.50
43320;DHT22;28914;48.722;9.332;2023-05-29T23:24:21;20.20;46.10
43320;DHT22;28914;48.722;9.332;2023-05-29T23:29:43;20.10;46.50
43320;DHT22;28914;48.722;9.332;2023-05-29T23:35:04;20.00;47.10
43320;DHT22;28914;48.722;9.332;2023-05-29T23:40:23;19.90;47.30
43320;DHT22;28914;48.722;9.332;2023-05-29T23:45:42;19.80;48.10
43320;DHT22;28914;48.722;9.332;2023-05-29T23:51:02;19.70;48.80
43320;DHT22;28914;48.722;9.332;2023-05-29T23:56:21;19.60;48.80
